This is the latest recevied weather packets stored in our database for station/object SP9INZ-13. If no packets are shown the sender has not sent any weather packets the latest 10 day(s).
| Time | Temp. | Humidity | Pressure | Rain* | Wind** | Luminosity | Snow |
|---|---|---|---|---|---|---|---|
| 1777944633 | 18.33° C | 37% | 1016.6 hPa | - | - | - | - |
| 1777943675 | 18.89° C | 36% | 1016.5 hPa | - | - | - | - |
| 1777942717 | 18.89° C | 36% | 1016.6 hPa | - | - | - | - |
| 1777941760 | 18.33° C | 36% | 1016.8 hPa | - | - | - | - |
| 1777940802 | 18.89° C | 36% | 1016.9 hPa | - | - | - | - |
| 1777939843 | 18.33° C | 37% | 1017.1 hPa | - | - | - | - |
| 1777938885 | 17.78° C | 38% | 1017.5 hPa | - | - | - | - |
| 1777937927 | 18.89° C | 37% | 1017.2 hPa | - | - | - | - |
| 1777936969 | 19.44° C | 37% | 1017 hPa | - | - | - | - |
| 1777936011 | 19.44° C | 36% | 1017.2 hPa | - | - | - | - |
| 1777935053 | 18.89° C | 36% | 1017.5 hPa | - | - | - | - |
| 1777934095 | 19.44° C | 36% | 1017.3 hPa | - | - | - | - |
| 1777933144 | 19.44° C | 36% | 1017.4 hPa | - | - | - | - |
| 1777933137 | 19.44° C | 36% | 1017.4 hPa | - | - | - | - |
| 1777932179 | 20° C | 36% | 1017.3 hPa | - | - | - | - |
| 1777931221 | 20° C | 36% | 1017.2 hPa | - | - | - | - |
| 1777930263 | 20° C | 35% | 1017.2 hPa | - | - | - | - |
| 1777929305 | 20.56° C | 34% | 1017.1 hPa | - | - | - | - |
| 1777928347 | 21.11° C | 34% | 1016.9 hPa | - | - | - | - |
| 1777927389 | 21.11° C | 35% | 1016.7 hPa | - | - | - | - |
| 1777926431 | 21.11° C | 36% | 1016.5 hPa | - | - | - | - |
| 1777925473 | 21.67° C | 38% | 1015.9 hPa | - | - | - | - |
| 1777924517 | 22.22° C | 38% | 1015.7 hPa | - | - | - | - |
| 1777923557 | 22.22° C | 38% | 1015.6 hPa | - | - | - | - |
| 1777922599 | 22.22° C | 38% | 1015.5 hPa | - | - | - | - |
* Rain since midnight (hover to see other rain measurements)
** Current wind speed in m/s (hover to see current wind gust speed)